createdAt,value
2024-03-20T00:02:27.093Z,89.45
2024-03-20T00:04:55.374Z,89.68
2024-03-20T00:07:23.494Z,89.47
2024-03-20T00:09:51.525Z,89.56
2024-03-20T00:12:20.836Z,89.41
2024-03-20T00:14:49.819Z,89.91
2024-03-20T00:17:17.907Z,89.96
2024-03-20T00:19:46.383Z,90.09
2024-03-20T00:22:14.345Z,90.11
2024-03-20T00:24:42.444Z,90.19
2024-03-20T00:27:10.455Z,90.02
2024-03-20T00:29:38.407Z,90.27
2024-03-20T00:32:07.139Z,90.21
2024-03-20T00:34:35.095Z,89.99
2024-03-20T00:37:03.193Z,89.88
2024-03-20T00:39:31.331Z,89.97
2024-03-20T00:41:59.321Z,89.94
2024-03-20T00:44:27.322Z,89.97
2024-03-20T00:46:55.337Z,89.74
2024-03-20T00:49:23.371Z,89.89
2024-03-20T00:51:51.367Z,89.18
2024-03-20T00:54:19.325Z,89.11
2024-03-20T00:56:47.299Z,89.06
2024-03-20T00:59:18.049Z,89.24
2024-03-20T01:01:46.057Z,89.58
2024-03-20T01:04:15.681Z,89.76
2024-03-20T01:06:44.965Z,90.00
2024-03-20T01:09:12.946Z,89.84
2024-03-20T01:11:40.904Z,89.60
2024-03-20T01:14:08.855Z,89.74
2024-03-20T01:16:38.259Z,89.75
2024-03-20T01:19:06.365Z,90.03
2024-03-20T01:21:34.361Z,89.83
2024-03-20T01:24:02.353Z,90.16
2024-03-20T01:26:30.947Z,90.39
2024-03-20T01:28:58.921Z,90.55
2024-03-20T01:31:27.058Z,90.44
2024-03-20T01:33:55.122Z,90.42
2024-03-20T01:36:23.287Z,90.33
2024-03-20T01:38:51.328Z,90.33
2024-03-20T01:41:19.416Z,90.55
2024-03-20T01:43:55.362Z,90.49
2024-03-20T01:46:34.711Z,90.52
2024-03-20T01:49:05.378Z,90.55
2024-03-20T01:51:34.016Z,90.73
2024-03-20T01:54:03.365Z,90.55
2024-03-20T01:56:33.407Z,90.52
2024-03-20T01:59:01.452Z,90.68
2024-03-20T02:01:29.432Z,90.60
2024-03-20T02:03:59.041Z,90.44
2024-03-20T02:06:29.286Z,90.44
2024-03-20T02:08:58.608Z,90.42
2024-03-20T02:11:29.698Z,90.23
2024-03-20T02:13:58.895Z,89.96
2024-03-20T02:16:28.561Z,90.02
2024-03-20T02:18:57.053Z,89.77
2024-03-20T02:21:25.737Z,90.01
2024-03-20T02:23:53.757Z,89.86
2024-03-20T02:26:22.141Z,89.93
2024-03-20T02:28:50.085Z,90.10
2024-03-20T02:31:18.088Z,90.31
2024-03-20T02:33:46.296Z,90.50
2024-03-20T02:36:14.319Z,90.33
2024-03-20T02:38:43.095Z,90.55
2024-03-20T02:41:11.903Z,90.52
2024-03-20T02:43:39.954Z,90.52
2024-03-20T02:46:07.951Z,90.47
2024-03-20T02:48:36.000Z,90.62
2024-03-20T02:51:04.942Z,90.56
2024-03-20T02:53:32.911Z,90.59
2024-03-20T02:56:00.967Z,90.67
2024-03-20T02:58:28.940Z,90.90
2024-03-20T03:00:56.947Z,90.80
2024-03-20T03:03:24.933Z,90.75
2024-03-20T03:05:52.977Z,90.74
2024-03-20T03:08:20.989Z,90.63
2024-03-20T03:10:48.979Z,90.57
2024-03-20T03:13:17.364Z,90.61
2024-03-20T03:15:45.378Z,90.56
2024-03-20T03:18:13.381Z,90.51
2024-03-20T03:20:44.410Z,90.58
2024-03-20T03:23:12.491Z,90.44
2024-03-20T03:25:40.553Z,90.57
2024-03-20T03:28:08.534Z,90.78
2024-03-20T03:30:36.624Z,90.55
2024-03-20T03:33:04.655Z,90.12
2024-03-20T03:35:32.665Z,89.92
2024-03-20T03:38:00.658Z,89.73
2024-03-20T03:40:28.651Z,89.88
2024-03-20T03:42:56.670Z,89.82
2024-03-20T03:45:24.699Z,89.72
2024-03-20T03:47:52.825Z,89.43
2024-03-20T03:50:20.883Z,89.78
2024-03-20T03:52:50.592Z,90.13
2024-03-20T03:55:18.586Z,90.07
2024-03-20T03:57:46.585Z,90.06
2024-03-20T04:00:15.037Z,90.24
2024-03-20T04:02:43.039Z,89.69
2024-03-20T04:05:11.051Z,89.87
2024-03-20T04:07:39.068Z,89.84
2024-03-20T04:10:07.620Z,89.61
2024-03-20T04:12:35.610Z,89.25
2024-03-20T04:15:04.137Z,89.83
2024-03-20T04:17:32.132Z,89.68
2024-03-20T04:20:00.182Z,89.29
2024-03-20T04:22:28.246Z,89.58
2024-03-20T04:24:56.255Z,89.56
2024-03-20T04:27:24.270Z,89.61
2024-03-20T04:29:53.359Z,89.78
2024-03-20T04:32:21.354Z,89.50
2024-03-20T04:34:49.310Z,89.97
2024-03-20T04:37:17.302Z,89.77
2024-03-20T04:39:45.356Z,89.21
2024-03-20T04:42:13.826Z,89.44
2024-03-20T04:44:41.868Z,89.57
2024-03-20T04:47:09.858Z,89.42
2024-03-20T04:49:37.864Z,89.34
2024-03-20T04:52:06.407Z,89.30
2024-03-20T04:54:34.462Z,88.88
2024-03-20T04:57:02.459Z,88.99
2024-03-20T04:59:30.448Z,89.16
2024-03-20T05:01:58.417Z,89.21
2024-03-20T05:04:26.389Z,88.71
2024-03-20T05:06:54.635Z,88.59
2024-03-20T05:09:23.573Z,89.04
2024-03-20T05:11:52.006Z,89.16
2024-03-20T05:14:19.965Z,89.13
2024-03-20T05:16:48.001Z,89.13
2024-03-20T05:19:16.182Z,89.05
2024-03-20T05:21:44.379Z,89.53
2024-03-20T05:24:12.358Z,89.26
2024-03-20T05:26:40.396Z,89.43
2024-03-20T05:29:08.724Z,89.74
2024-03-20T05:31:36.927Z,89.68
2024-03-20T05:34:05.034Z,90.12
2024-03-20T05:36:33.018Z,89.95
2024-03-20T05:39:01.032Z,90.16
2024-03-20T05:41:29.478Z,90.15
2024-03-20T05:43:58.202Z,90.07
2024-03-20T05:46:26.424Z,90.05
2024-03-20T05:48:54.393Z,90.23
2024-03-20T05:51:22.360Z,90.41
2024-03-20T05:53:50.339Z,90.25
2024-03-20T05:56:18.361Z,90.12
2024-03-20T05:58:49.817Z,90.12
2024-03-20T06:01:19.202Z,90.35
2024-03-20T06:03:47.194Z,90.22
2024-03-20T06:06:15.197Z,90.34
2024-03-20T06:11:28.965Z,90.26
2024-03-20T06:13:58.262Z,90.32
2024-03-20T06:16:26.283Z,90.09
2024-03-20T06:18:54.302Z,90.03
2024-03-20T06:21:22.511Z,90.13
2024-03-20T06:23:50.596Z,90.16
2024-03-20T06:26:18.589Z,90.37
2024-03-20T06:28:46.965Z,90.09
2024-03-20T06:31:15.277Z,90.07
2024-03-20T06:33:44.988Z,90.33
2024-03-20T06:36:13.043Z,90.52
2024-03-20T06:38:42.178Z,90.69
2024-03-20T06:41:10.466Z,90.39
2024-03-20T06:43:39.333Z,90.29
2024-03-20T06:46:07.359Z,90.08
2024-03-20T06:48:35.599Z,90.24
2024-03-20T06:51:06.985Z,90.25
2024-03-20T06:53:36.390Z,90.06
2024-03-20T06:56:06.832Z,90.24
2024-03-20T06:58:34.806Z,90.06
2024-03-20T07:01:04.161Z,90.16
2024-03-20T07:03:32.173Z,89.86
2024-03-20T07:06:00.700Z,90.09
2024-03-20T07:08:31.236Z,90.27
2024-03-20T07:10:59.454Z,90.52
2024-03-20T07:13:27.483Z,90.52
2024-03-20T07:15:55.438Z,90.57
2024-03-20T07:18:23.456Z,90.31
2024-03-20T07:20:51.411Z,89.85
2024-03-20T07:23:19.504Z,89.73
2024-03-20T07:25:47.888Z,90.12
2024-03-20T07:28:15.966Z,90.06
2024-03-20T07:30:43.940Z,90.02
2024-03-20T07:33:12.504Z,90.22
2024-03-20T07:35:48.465Z,89.95
2024-03-20T07:38:17.165Z,89.77
2024-03-20T07:40:46.476Z,89.56
2024-03-20T07:43:15.664Z,89.74
2024-03-20T07:45:43.678Z,89.78
2024-03-20T07:48:13.250Z,89.84
2024-03-20T07:50:41.337Z,90.15
2024-03-20T07:53:09.783Z,90.26
2024-03-20T07:55:37.772Z,90.27
2024-03-20T07:58:07.426Z,90.19
2024-03-20T08:00:36.481Z,90.52
2024-03-20T08:03:04.565Z,89.82
2024-03-20T08:05:32.730Z,89.65
2024-03-20T08:08:00.690Z,89.37
2024-03-20T08:10:28.788Z,89.47
2024-03-20T08:12:56.963Z,89.93
2024-03-20T08:15:24.986Z,89.41
2024-03-20T08:17:53.057Z,90.18
2024-03-20T08:20:21.145Z,90.03
2024-03-20T08:22:49.118Z,89.99
2024-03-20T08:25:17.562Z,88.75
2024-03-20T08:27:45.690Z,89.22
2024-03-20T08:30:14.619Z,89.42
2024-03-20T08:32:42.904Z,89.36
2024-03-20T08:35:14.029Z,88.96
2024-03-20T08:37:42.085Z,88.32
2024-03-20T08:40:11.096Z,88.52
2024-03-20T08:42:39.693Z,88.24
2024-03-20T08:45:09.413Z,88.47
2024-03-20T08:47:38.403Z,87.00
2024-03-20T08:50:09.269Z,86.37
2024-03-20T08:52:37.342Z,87.21
2024-03-20T08:55:07.301Z,89.33
2024-03-20T08:57:37.654Z,88.53
2024-03-20T09:00:12.135Z,85.11
2024-03-20T09:02:40.268Z,84.03
2024-03-20T09:05:09.839Z,86.51
2024-03-20T09:07:37.947Z,85.30
2024-03-20T09:10:06.357Z,83.24
2024-03-20T09:12:34.334Z,83.74
2024-03-20T09:15:02.901Z,83.99
2024-03-20T09:17:30.930Z,81.92
2024-03-20T09:19:59.313Z,78.06
2024-03-20T09:22:27.479Z,84.46
2024-03-20T09:24:55.632Z,83.10
2024-03-20T09:27:23.845Z,81.42
2024-03-20T09:29:52.103Z,79.63
2024-03-20T09:32:20.153Z,78.20
2024-03-20T09:34:48.218Z,75.59
2024-03-20T09:37:19.968Z,76.98
2024-03-20T09:39:48.211Z,77.06
2024-03-20T09:42:16.186Z,76.80
2024-03-20T09:44:44.469Z,77.11
2024-03-20T09:47:12.972Z,76.80
2024-03-20T09:49:41.496Z,73.78
2024-03-20T09:52:10.806Z,74.82
2024-03-20T09:54:38.983Z,75.21
2024-03-20T09:57:07.380Z,77.21
2024-03-20T09:59:35.461Z,69.15
2024-03-20T10:02:03.627Z,70.96
2024-03-20T10:04:42.466Z,67.49
2024-03-20T10:07:17.478Z,67.21
2024-03-20T10:09:46.830Z,68.31
2024-03-20T10:12:18.481Z,67.41
2024-03-20T10:14:48.517Z,67.25
2024-03-20T10:17:18.886Z,66.30
2024-03-20T10:19:46.955Z,68.98
2024-03-20T10:22:15.213Z,67.69
2024-03-20T10:24:43.557Z,67.95
2024-03-20T10:27:13.798Z,67.83
2024-03-20T10:29:46.118Z,67.93
2024-03-20T10:32:19.078Z,69.39
2024-03-20T10:34:49.066Z,69.07
2024-03-20T10:37:18.613Z,68.71
2024-03-20T10:39:49.790Z,68.77
2024-03-20T10:42:19.495Z,68.82
2024-03-20T10:44:48.014Z,68.60
2024-03-20T10:47:16.516Z,66.81
2024-03-20T10:49:45.766Z,66.35
2024-03-20T10:52:15.418Z,66.37
2024-03-20T10:54:43.515Z,66.59
2024-03-20T10:57:12.037Z,67.22
2024-03-20T10:59:40.120Z,67.29
2024-03-20T11:02:14.913Z,66.21
2024-03-20T11:04:44.498Z,66.21
2024-03-20T11:07:30.488Z,63.76
2024-03-20T11:09:59.600Z,63.18
2024-03-20T11:12:35.116Z,59.69
2024-03-20T11:15:08.497Z,60.39
2024-03-20T11:17:37.805Z,59.95
2024-03-20T11:20:13.664Z,60.16
2024-03-20T11:22:41.627Z,57.80
2024-03-20T11:25:12.227Z,58.21
2024-03-20T11:27:40.594Z,58.12
2024-03-20T11:30:10.870Z,57.55
2024-03-20T11:32:38.823Z,55.95
2024-03-20T11:35:09.345Z,56.12
2024-03-20T11:37:37.719Z,53.32
2024-03-20T11:40:06.895Z,55.74
2024-03-20T11:42:34.864Z,56.53
2024-03-20T11:45:05.113Z,56.34
2024-03-20T11:47:33.204Z,57.49
2024-03-20T11:50:01.336Z,56.82
2024-03-20T11:52:30.043Z,57.09
2024-03-20T11:55:00.236Z,56.98
2024-03-20T11:57:28.669Z,56.00
2024-03-20T11:59:57.335Z,55.86
2024-03-20T12:02:26.245Z,56.18
2024-03-20T12:04:54.588Z,55.55
2024-03-20T12:07:26.983Z,56.29
2024-03-20T12:09:56.103Z,56.41
2024-03-20T12:12:28.427Z,57.17
2024-03-20T12:14:57.637Z,54.11
2024-03-20T12:17:27.784Z,54.76
2024-03-20T12:19:57.044Z,54.87
2024-03-20T12:22:25.854Z,54.97
2024-03-20T12:25:01.900Z,54.98
2024-03-20T12:27:33.124Z,53.88
2024-03-20T12:30:01.203Z,53.11
2024-03-20T12:32:29.814Z,52.83
2024-03-20T12:34:57.922Z,52.80
2024-03-20T12:37:27.790Z,53.79
2024-03-20T12:39:58.854Z,53.42
2024-03-20T12:42:27.113Z,53.56
2024-03-20T12:44:56.098Z,53.51
2024-03-20T12:47:24.138Z,53.07
2024-03-20T12:49:54.015Z,51.92
2024-03-20T12:52:22.134Z,51.19
2024-03-20T12:54:51.837Z,51.35
2024-03-20T12:57:19.863Z,50.10
2024-03-20T12:59:48.230Z,48.46
2024-03-20T13:02:17.446Z,47.78
2024-03-20T13:04:48.559Z,49.15
2024-03-20T13:07:17.232Z,46.79
2024-03-20T13:09:48.144Z,46.16
2024-03-20T13:12:16.465Z,45.84
2024-03-20T13:14:44.510Z,45.16
2024-03-20T13:17:19.463Z,43.99
2024-03-20T13:19:47.938Z,44.83
2024-03-20T13:22:20.774Z,45.35
2024-03-20T13:24:50.063Z,45.66
2024-03-20T13:27:22.009Z,45.67
2024-03-20T13:29:50.865Z,46.43
2024-03-20T13:32:23.991Z,44.76
2024-03-20T13:34:54.786Z,44.34
2024-03-20T13:37:27.804Z,44.38
2024-03-20T13:40:15.804Z,43.19
2024-03-20T13:43:19.550Z,43.26
2024-03-20T13:45:58.762Z,41.79
2024-03-20T13:48:27.466Z,41.48
2024-03-20T13:50:55.421Z,41.25
2024-03-20T13:53:24.332Z,41.26
2024-03-20T13:55:54.627Z,42.55
2024-03-20T13:58:26.516Z,42.71
2024-03-20T14:00:55.099Z,43.51
2024-03-20T14:03:23.096Z,43.35
2024-03-20T14:05:51.539Z,44.68
2024-03-20T14:08:33.457Z,43.75
2024-03-20T14:11:06.905Z,44.94
2024-03-20T14:13:35.272Z,45.24
2024-03-20T14:16:04.196Z,45.93
2024-03-20T14:18:32.273Z,44.85
2024-03-20T14:21:00.349Z,45.34
2024-03-20T14:23:28.791Z,45.21
2024-03-20T14:25:58.025Z,45.85
2024-03-20T14:28:25.970Z,46.45
2024-03-20T14:30:53.967Z,47.08
2024-03-20T14:33:21.955Z,47.39
2024-03-20T14:35:49.975Z,48.65
2024-03-20T14:38:44.135Z,48.85
2024-03-20T14:41:19.943Z,48.36
2024-03-20T14:43:51.288Z,48.73
2024-03-20T14:46:23.282Z,46.18
2024-03-20T14:48:51.557Z,47.25
2024-03-20T14:51:22.749Z,46.28
2024-03-20T14:53:51.935Z,46.13
2024-03-20T14:56:21.200Z,46.19
2024-03-20T14:58:52.529Z,45.34
2024-03-20T15:01:22.321Z,43.41
2024-03-20T15:03:50.530Z,45.26
2024-03-20T15:06:20.388Z,44.20
2024-03-20T15:08:54.205Z,45.64
2024-03-20T15:11:25.090Z,45.98
2024-03-20T15:13:53.988Z,44.67
2024-03-20T15:16:23.948Z,44.99
2024-03-20T15:18:54.462Z,45.52
2024-03-20T15:21:24.082Z,47.30
2024-03-20T15:23:53.376Z,47.87
2024-03-20T15:26:23.295Z,48.76
2024-03-20T15:28:53.449Z,48.92
2024-03-20T15:31:24.485Z,48.71
2024-03-20T15:33:52.607Z,48.93
2024-03-20T15:36:21.217Z,49.80
2024-03-20T15:38:50.166Z,50.06
2024-03-20T15:41:22.519Z,50.37
2024-03-20T15:43:51.796Z,51.13
2024-03-20T15:46:20.665Z,51.52
2024-03-20T15:48:51.415Z,51.89
2024-03-20T15:51:22.861Z,52.88
2024-03-20T15:53:51.758Z,52.29
2024-03-20T15:56:20.210Z,54.19
2024-03-20T15:58:51.129Z,54.30
2024-03-20T16:01:21.986Z,55.39
2024-03-20T16:03:52.887Z,55.58
2024-03-20T16:06:21.055Z,59.60
2024-03-20T16:08:49.061Z,59.05
2024-03-20T16:11:17.066Z,60.14
2024-03-20T16:13:45.202Z,61.67
2024-03-20T16:16:18.068Z,62.47
2024-03-20T16:18:46.152Z,63.05
2024-03-20T16:21:14.475Z,63.39
2024-03-20T16:23:43.295Z,64.42
2024-03-20T16:26:16.921Z,64.69
2024-03-20T16:28:45.319Z,64.83
2024-03-20T16:31:13.431Z,64.80
2024-03-20T16:33:41.487Z,64.91
2024-03-20T16:36:09.636Z,65.88
2024-03-20T16:38:39.559Z,67.18
2024-03-20T16:41:16.436Z,66.95
2024-03-20T16:43:51.065Z,68.03
2024-03-20T16:46:19.359Z,68.19
2024-03-20T16:48:47.676Z,67.39
2024-03-20T16:51:16.497Z,67.84
2024-03-20T16:53:44.750Z,68.76
2024-03-20T16:56:13.424Z,68.08
2024-03-20T16:58:42.040Z,69.28
2024-03-20T17:01:10.071Z,70.01
2024-03-20T17:03:38.306Z,69.75
2024-03-20T17:06:08.010Z,70.21
2024-03-20T17:08:36.088Z,70.58
2024-03-20T17:11:04.247Z,70.63
2024-03-20T17:13:32.279Z,70.70
2024-03-20T17:16:00.286Z,70.90
2024-03-20T17:18:28.296Z,71.62
2024-03-20T17:20:57.042Z,71.73
2024-03-20T17:23:26.030Z,71.58
2024-03-20T17:25:54.140Z,71.37
2024-03-20T17:28:22.233Z,71.71
2024-03-20T17:30:50.203Z,71.84
2024-03-20T17:33:18.222Z,71.79
2024-03-20T17:35:52.288Z,71.13
2024-03-20T17:38:20.851Z,71.37
2024-03-20T17:40:55.227Z,72.44
2024-03-20T17:43:23.296Z,72.44
2024-03-20T17:45:51.278Z,72.99
2024-03-20T17:48:19.239Z,72.54
2024-03-20T17:50:47.421Z,72.80
2024-03-20T17:53:15.423Z,73.73
2024-03-20T17:55:43.393Z,73.69
2024-03-20T17:58:11.662Z,74.05
2024-03-20T18:00:39.685Z,74.33
2024-03-20T18:03:07.677Z,74.81
2024-03-20T18:05:35.701Z,75.05
2024-03-20T18:08:03.762Z,74.89
2024-03-20T18:10:31.739Z,75.26
2024-03-20T18:12:59.690Z,74.71
2024-03-20T18:15:28.051Z,74.95
2024-03-20T18:17:56.092Z,75.29
2024-03-20T18:20:24.186Z,75.59
2024-03-20T18:22:52.161Z,75.49
2024-03-20T18:25:20.526Z,76.22
2024-03-20T18:27:48.654Z,76.27
2024-03-20T18:30:17.258Z,75.90
2024-03-20T18:32:45.211Z,75.53
2024-03-20T18:35:13.344Z,75.45
2024-03-20T18:37:41.892Z,75.80
2024-03-20T18:40:13.028Z,76.14
2024-03-20T18:42:40.994Z,76.22
2024-03-20T18:45:11.272Z,76.44
2024-03-20T18:47:39.312Z,76.99
2024-03-20T18:50:08.553Z,77.22
2024-03-20T18:52:36.672Z,77.27
2024-03-20T18:55:05.670Z,77.40
2024-03-20T18:57:36.279Z,77.77
2024-03-20T19:00:09.597Z,78.06
2024-03-20T19:02:38.078Z,77.63
2024-03-20T19:05:06.213Z,78.06
2024-03-20T19:07:34.251Z,77.99
2024-03-20T19:10:02.219Z,78.04
2024-03-20T19:12:30.463Z,78.07
2024-03-20T19:14:58.513Z,78.12
2024-03-20T19:17:26.479Z,78.58
2024-03-20T19:19:57.186Z,78.46
2024-03-20T19:22:25.379Z,78.45
2024-03-20T19:24:54.739Z,78.48
2024-03-20T19:27:22.784Z,78.15
2024-03-20T19:29:54.562Z,78.05
2024-03-20T19:32:22.679Z,78.00
2024-03-20T19:34:50.738Z,79.00
2024-03-20T19:37:18.686Z,79.34
2024-03-20T19:39:46.674Z,78.81
2024-03-20T19:42:14.686Z,79.29
2024-03-20T19:44:47.666Z,79.59
2024-03-20T19:47:15.501Z,79.01
2024-03-20T19:49:43.960Z,78.93
2024-03-20T19:52:11.903Z,78.58
2024-03-20T19:54:40.905Z,78.95
2024-03-20T19:57:10.781Z,79.15
2024-03-20T19:59:38.830Z,79.52
2024-03-20T20:02:06.937Z,79.60
2024-03-20T20:04:35.137Z,79.69
2024-03-20T20:07:04.422Z,79.88
2024-03-20T20:09:35.511Z,79.56
2024-03-20T20:12:06.527Z,79.17
2024-03-20T20:14:34.517Z,79.25
2024-03-20T20:17:02.559Z,79.32
2024-03-20T20:19:30.580Z,79.08
2024-03-20T20:21:58.564Z,79.26
2024-03-20T20:24:26.606Z,79.23
2024-03-20T20:26:54.631Z,79.24
2024-03-20T20:29:22.617Z,79.12
2024-03-20T20:31:50.609Z,79.11
2024-03-20T20:34:18.552Z,79.34
2024-03-20T20:36:47.647Z,79.51
2024-03-20T20:39:15.608Z,79.79
2024-03-20T20:41:45.353Z,80.00
2024-03-20T20:44:13.444Z,80.00
2024-03-20T20:46:41.737Z,79.78
2024-03-20T20:49:09.803Z,80.06
2024-03-20T20:51:37.804Z,80.62
2024-03-20T20:54:06.360Z,80.73
2024-03-20T20:56:34.441Z,81.03
2024-03-20T20:59:02.445Z,81.16
2024-03-20T21:01:30.705Z,81.32
2024-03-20T21:04:17.387Z,81.04
2024-03-20T21:07:04.122Z,80.86
2024-03-20T21:09:50.973Z,81.06
2024-03-20T21:12:37.707Z,81.01
2024-03-20T21:15:25.015Z,81.57
2024-03-20T21:18:11.654Z,81.36
2024-03-20T21:20:40.056Z,82.08
2024-03-20T21:23:14.270Z,82.12
2024-03-20T21:25:42.227Z,81.96
2024-03-20T21:28:10.213Z,81.88
2024-03-20T21:30:38.265Z,81.60
2024-03-20T21:33:06.248Z,81.55
2024-03-20T21:35:34.258Z,82.09
2024-03-20T21:38:02.252Z,82.52
2024-03-20T21:40:32.674Z,82.87
2024-03-20T21:43:00.712Z,82.59
2024-03-20T21:45:28.736Z,82.59
2024-03-20T21:47:56.721Z,82.91
2024-03-20T21:50:24.718Z,82.63
2024-03-20T21:52:52.857Z,82.47
2024-03-20T21:55:21.837Z,82.38
2024-03-20T21:57:50.828Z,82.41
2024-03-20T22:00:19.236Z,82.94
2024-03-20T22:02:47.286Z,82.97
2024-03-20T22:05:15.242Z,82.82
2024-03-20T22:07:45.712Z,82.88
2024-03-20T22:10:24.676Z,82.65
2024-03-20T22:12:53.758Z,82.36
2024-03-20T22:15:21.856Z,82.50
2024-03-20T22:17:49.817Z,82.30
2024-03-20T22:20:18.827Z,82.53
2024-03-20T22:22:48.843Z,82.33
2024-03-20T22:25:16.957Z,82.53
2024-03-20T22:27:45.012Z,82.94
2024-03-20T22:30:17.733Z,82.65
2024-03-20T22:32:47.018Z,82.66
2024-03-20T22:35:15.084Z,82.32
2024-03-20T22:37:43.185Z,82.51
2024-03-20T22:40:13.251Z,82.47
2024-03-20T22:42:41.222Z,82.38
2024-03-20T22:45:20.510Z,82.24
2024-03-20T22:47:53.400Z,82.39
2024-03-20T22:50:21.262Z,82.36
2024-03-20T22:52:49.546Z,82.02
2024-03-20T22:55:17.543Z,82.10
2024-03-20T22:57:53.393Z,82.40
2024-03-20T23:00:46.937Z,82.14
2024-03-20T23:03:19.732Z,82.54
2024-03-20T23:05:56.093Z,82.18
2024-03-20T23:08:24.043Z,82.24
2024-03-20T23:10:52.252Z,82.48
2024-03-20T23:13:20.213Z,82.24
2024-03-20T23:15:48.245Z,82.67
2024-03-20T23:18:16.210Z,82.70
2024-03-20T23:20:45.047Z,82.92
2024-03-20T23:23:13.064Z,82.85
2024-03-20T23:25:45.060Z,82.76
2024-03-20T23:28:19.277Z,82.62
2024-03-20T23:30:47.240Z,82.88
2024-03-20T23:33:15.478Z,83.01
2024-03-20T23:35:43.419Z,82.81
2024-03-20T23:38:15.090Z,82.62
2024-03-20T23:40:43.747Z,82.48
2024-03-20T23:43:11.790Z,82.23
2024-03-20T23:45:39.723Z,82.63
2024-03-20T23:48:08.193Z,82.42
2024-03-20T23:50:36.245Z,82.62
2024-03-20T23:53:04.431Z,82.11
2024-03-20T23:55:32.691Z,82.56
2024-03-20T23:58:00.684Z,82.55
